createdAt,value
2022-07-28T00:01:10.518Z,18.80
2022-07-28T00:03:39.993Z,18.70
2022-07-28T00:06:07.972Z,18.70
2022-07-28T00:08:35.939Z,18.70
2022-07-28T00:11:04.006Z,18.60
2022-07-28T00:13:32.105Z,18.60
2022-07-28T00:16:00.179Z,18.60
2022-07-28T00:18:28.326Z,18.60
2022-07-28T00:20:58.155Z,18.50
2022-07-28T00:23:37.598Z,18.50
2022-07-28T00:26:08.131Z,18.40
2022-07-28T00:28:36.251Z,18.40
2022-07-28T00:31:05.580Z,18.40
2022-07-28T00:33:36.957Z,18.30
2022-07-28T00:36:07.206Z,18.30
2022-07-28T00:38:40.822Z,18.20
2022-07-28T00:41:12.293Z,18.30
2022-07-28T00:43:40.693Z,18.20
2022-07-28T00:46:09.959Z,18.20
2022-07-28T00:48:38.593Z,18.20
2022-07-28T00:51:09.161Z,18.20
2022-07-28T00:53:37.190Z,18.20
2022-07-28T00:56:06.929Z,18.10
2022-07-28T00:58:35.682Z,18.10
2022-07-28T01:01:03.928Z,18.10
2022-07-28T01:03:32.406Z,18.10
2022-07-28T01:06:05.625Z,18.00
2022-07-28T01:08:45.775Z,18.00
2022-07-28T01:11:16.492Z,17.90
2022-07-28T01:13:47.954Z,17.90
2022-07-28T01:16:16.277Z,17.90
2022-07-28T01:18:54.809Z,17.80
2022-07-28T01:21:25.803Z,17.80
2022-07-28T01:24:06.528Z,17.80
2022-07-28T01:26:44.258Z,17.80
2022-07-28T01:29:21.314Z,17.80
2022-07-28T01:31:53.391Z,17.70
2022-07-28T01:34:24.762Z,17.70
2022-07-28T01:36:54.545Z,17.70
2022-07-28T01:39:23.598Z,17.60
2022-07-28T01:41:52.754Z,17.60
2022-07-28T01:44:26.674Z,17.60
2022-07-28T01:46:56.758Z,17.50
2022-07-28T01:49:26.658Z,17.50
2022-07-28T01:51:55.850Z,17.50
2022-07-28T01:54:27.590Z,17.40
2022-07-28T01:56:56.973Z,17.40
2022-07-28T01:59:25.900Z,17.40
2022-07-28T02:01:54.365Z,17.40
2022-07-28T02:04:25.008Z,17.40
2022-07-28T02:06:53.718Z,17.40
2022-07-28T02:09:22.630Z,17.30
2022-07-28T02:11:53.691Z,17.30
2022-07-28T02:14:23.594Z,17.30
2022-07-28T02:16:53.704Z,17.40
2022-07-28T02:19:23.386Z,17.40
2022-07-28T02:21:52.147Z,17.40
2022-07-28T02:24:22.242Z,17.40
2022-07-28T02:26:51.802Z,17.40
2022-07-28T02:29:48.045Z,17.40
2022-07-28T02:32:27.915Z,17.40
2022-07-28T02:34:59.611Z,17.40
2022-07-28T02:37:28.076Z,17.40
2022-07-28T02:40:00.219Z,17.40
2022-07-28T02:42:30.049Z,17.40
2022-07-28T02:44:59.534Z,17.30
2022-07-28T02:47:29.245Z,17.30
2022-07-28T02:49:59.725Z,17.30
2022-07-28T02:52:28.942Z,17.30
2022-07-28T02:54:58.826Z,17.30
2022-07-28T02:57:28.700Z,17.20
2022-07-28T02:59:57.104Z,17.20
2022-07-28T03:02:25.220Z,17.20
2022-07-28T03:05:01.838Z,17.10
2022-07-28T03:07:34.496Z,17.10
2022-07-28T03:10:02.523Z,17.10
2022-07-28T03:12:30.647Z,17.10
2022-07-28T03:14:58.675Z,17.00
2022-07-28T03:17:26.663Z,17.00
2022-07-28T03:19:54.706Z,16.90
2022-07-28T03:22:22.662Z,16.90
2022-07-28T03:24:53.144Z,16.80
2022-07-28T03:27:22.834Z,16.80
2022-07-28T03:29:51.851Z,16.80
2022-07-28T03:32:19.947Z,16.80
2022-07-28T03:34:48.474Z,16.70
2022-07-28T03:37:18.086Z,16.70
2022-07-28T03:39:48.283Z,16.70
2022-07-28T03:42:19.046Z,16.70
2022-07-28T03:44:47.698Z,16.70
2022-07-28T03:47:15.783Z,16.70
2022-07-28T03:49:46.748Z,16.60
2022-07-28T03:52:14.760Z,16.60
2022-07-28T03:54:42.799Z,16.60
2022-07-28T03:57:10.958Z,16.60
2022-07-28T03:59:40.405Z,16.60
2022-07-28T04:02:08.471Z,16.60
2022-07-28T04:04:36.538Z,16.50
2022-07-28T04:07:04.554Z,16.50
2022-07-28T04:09:32.538Z,16.60
2022-07-28T04:12:00.570Z,16.60
2022-07-28T04:14:28.589Z,16.60
2022-07-28T04:16:58.058Z,16.60
2022-07-28T04:19:26.073Z,16.60
2022-07-28T04:21:54.067Z,16.60
2022-07-28T04:24:22.074Z,16.60
2022-07-28T04:26:50.082Z,16.70
2022-07-28T04:29:23.423Z,16.60
2022-07-28T04:31:55.351Z,16.60
2022-07-28T04:34:26.079Z,16.70
2022-07-28T04:36:55.458Z,16.70
2022-07-28T04:39:24.958Z,16.70
2022-07-28T04:41:52.968Z,16.70
2022-07-28T04:44:21.238Z,16.80
2022-07-28T04:46:49.214Z,16.80
2022-07-28T04:49:17.302Z,16.80
2022-07-28T04:51:50.606Z,16.90
2022-07-28T04:54:23.098Z,16.90
2022-07-28T04:56:54.228Z,17.00
2022-07-28T04:59:24.056Z,17.00
2022-07-28T05:01:52.744Z,17.10
2022-07-28T05:04:20.953Z,17.20
2022-07-28T05:06:50.438Z,17.20
2022-07-28T05:09:18.550Z,17.30
2022-07-28T05:11:46.570Z,17.50
2022-07-28T05:14:15.039Z,17.40
2022-07-28T05:16:43.359Z,17.50
2022-07-28T05:19:13.899Z,17.60
2022-07-28T05:21:42.083Z,17.60
2022-07-28T05:24:13.787Z,17.70
2022-07-28T05:26:42.189Z,17.70
2022-07-28T05:29:10.297Z,17.80
2022-07-28T05:31:38.543Z,17.90
2022-07-28T05:34:07.261Z,18.00
2022-07-28T05:36:36.614Z,18.10
2022-07-28T05:39:04.902Z,18.20
2022-07-28T05:41:34.322Z,18.30
2022-07-28T05:44:03.108Z,18.40
2022-07-28T05:46:31.146Z,18.50
2022-07-28T05:48:59.653Z,18.60
2022-07-28T05:51:27.884Z,18.70
2022-07-28T05:53:55.958Z,19.10
2022-07-28T05:56:23.982Z,19.80
2022-07-28T05:58:53.531Z,20.70
2022-07-28T06:01:21.607Z,21.40
2022-07-28T06:04:10.125Z,22.00
2022-07-28T06:06:40.984Z,22.60
2022-07-28T06:09:09.068Z,23.30
2022-07-28T06:11:37.244Z,23.80
2022-07-28T06:14:06.861Z,24.10
2022-07-28T06:16:34.912Z,24.50
2022-07-28T06:19:02.988Z,24.90
2022-07-28T06:21:32.980Z,25.30
2022-07-28T06:24:01.235Z,25.60
2022-07-28T06:26:29.194Z,25.90
2022-07-28T06:28:57.235Z,26.10
2022-07-28T06:31:26.705Z,26.30
2022-07-28T06:33:54.729Z,26.50
2022-07-28T06:36:22.828Z,26.70
2022-07-28T06:38:50.811Z,27.00
2022-07-28T06:41:18.912Z,27.40
2022-07-28T06:43:46.914Z,27.70
2022-07-28T06:46:18.768Z,27.40
2022-07-28T06:48:48.317Z,27.80
2022-07-28T06:51:19.382Z,27.90
2022-07-28T06:53:48.432Z,28.00
2022-07-28T06:56:16.994Z,28.30
2022-07-28T06:58:46.958Z,28.80
2022-07-28T07:01:15.514Z,29.00
2022-07-28T07:03:44.164Z,29.60
2022-07-28T07:06:13.666Z,30.00
2022-07-28T07:08:41.770Z,30.40
2022-07-28T07:11:09.810Z,30.70
2022-07-28T07:13:38.171Z,31.30
2022-07-28T07:16:08.127Z,31.50
2022-07-28T07:18:36.378Z,31.90
2022-07-28T07:21:04.495Z,32.20
2022-07-28T07:23:35.520Z,32.70
2022-07-28T07:26:03.555Z,33.10
2022-07-28T07:28:31.570Z,33.40
2022-07-28T07:30:59.681Z,33.30
2022-07-28T07:33:27.731Z,33.40
2022-07-28T07:35:56.262Z,33.50
2022-07-28T07:38:29.039Z,33.80
2022-07-28T07:40:58.790Z,34.10
2022-07-28T07:43:26.790Z,34.60
2022-07-28T07:45:54.809Z,35.00
2022-07-28T07:48:22.878Z,35.30
2022-07-28T07:50:54.037Z,35.50
2022-07-28T07:53:22.994Z,35.40
2022-07-28T07:55:51.139Z,35.40
2022-07-28T07:58:20.553Z,35.50
2022-07-28T08:00:48.564Z,35.40
2022-07-28T08:03:16.646Z,35.50
2022-07-28T08:05:51.679Z,35.70
2022-07-28T08:08:19.683Z,35.60
2022-07-28T08:10:51.126Z,35.80
2022-07-28T08:13:23.135Z,35.80
2022-07-28T08:15:51.489Z,36.20
2022-07-28T08:18:20.703Z,36.50
2022-07-28T08:20:48.742Z,36.60
2022-07-28T08:23:16.712Z,36.70
2022-07-28T08:25:44.878Z,37.10
2022-07-28T08:28:13.028Z,37.40
2022-07-28T08:30:42.509Z,37.10
2022-07-28T08:33:10.487Z,36.40
2022-07-28T08:35:38.525Z,35.50
2022-07-28T08:38:07.068Z,35.90
2022-07-28T08:40:36.581Z,36.00
2022-07-28T08:43:09.208Z,36.50
2022-07-28T08:45:37.795Z,36.50
2022-07-28T08:48:09.853Z,36.40
2022-07-28T08:50:38.837Z,36.40
2022-07-28T08:53:07.932Z,36.40
2022-07-28T08:55:36.909Z,36.50
2022-07-28T08:58:05.336Z,36.70
2022-07-28T09:00:33.408Z,36.80
2022-07-28T09:03:03.357Z,37.10
2022-07-28T09:05:33.277Z,37.30
2022-07-28T09:08:01.396Z,37.80
2022-07-28T09:10:29.497Z,38.10
2022-07-28T09:12:57.514Z,38.30
2022-07-28T09:15:25.557Z,38.50
2022-07-28T09:17:53.575Z,38.80
2022-07-28T09:20:21.710Z,39.10
2022-07-28T09:22:58.574Z,39.10
2022-07-28T09:25:26.850Z,38.90
2022-07-28T09:27:55.069Z,38.70
2022-07-28T09:30:34.050Z,39.00
2022-07-28T09:33:40.943Z,39.10
2022-07-28T09:36:03.935Z,39.00
2022-07-28T09:38:41.955Z,39.30
2022-07-28T09:41:10.039Z,39.20
2022-07-28T09:43:39.307Z,39.40
2022-07-28T09:46:09.282Z,39.20
2022-07-28T09:48:37.688Z,39.40
2022-07-28T09:51:13.269Z,39.30
2022-07-28T09:53:43.172Z,39.10
2022-07-28T09:56:11.846Z,38.70
2022-07-28T09:58:40.354Z,39.00
2022-07-28T10:01:09.532Z,39.20
2022-07-28T10:03:40.515Z,39.10
2022-07-28T10:06:09.477Z,38.90
2022-07-28T10:08:42.650Z,38.80
2022-07-28T10:11:11.178Z,38.40
2022-07-28T10:13:52.393Z,38.30
2022-07-28T10:16:21.393Z,38.00
2022-07-28T10:18:49.757Z,37.80
2022-07-28T10:21:19.231Z,38.20
2022-07-28T10:23:49.865Z,38.60
2022-07-28T10:26:18.152Z,38.40
2022-07-28T10:28:48.644Z,38.50
2022-07-28T10:31:23.135Z,38.40
2022-07-28T10:33:52.175Z,38.60
2022-07-28T10:36:24.189Z,38.70
2022-07-28T10:38:56.107Z,38.60
2022-07-28T10:41:25.077Z,38.90
2022-07-28T10:43:58.185Z,39.10
2022-07-28T10:46:26.959Z,39.30
2022-07-28T10:48:55.063Z,39.60
2022-07-28T10:51:28.413Z,39.50
2022-07-28T10:54:02.471Z,39.70
2022-07-28T10:56:35.717Z,39.80
2022-07-28T10:59:07.358Z,40.00
2022-07-28T11:01:51.859Z,40.10
2022-07-28T11:04:38.569Z,40.30
2022-07-28T11:07:10.712Z,40.30
2022-07-28T11:09:40.404Z,40.60
2022-07-28T11:12:09.927Z,40.60
2022-07-28T11:14:39.300Z,40.30
2022-07-28T11:17:33.767Z,40.40
2022-07-28T11:20:24.774Z,40.40
2022-07-28T11:22:53.010Z,40.20
2022-07-28T11:25:22.996Z,40.30
2022-07-28T11:28:00.603Z,40.10
2022-07-28T11:30:47.350Z,40.20
2022-07-28T11:33:15.392Z,40.40
2022-07-28T11:35:58.283Z,40.30
2022-07-28T11:38:26.731Z,40.10
2022-07-28T11:40:57.418Z,40.10
2022-07-28T11:43:37.905Z,39.80
2022-07-28T11:46:23.275Z,39.70
2022-07-28T11:49:15.345Z,39.50
2022-07-28T11:51:59.557Z,39.40
2022-07-28T11:54:30.760Z,39.20
2022-07-28T11:57:02.348Z,38.90
2022-07-28T11:59:41.147Z,38.90
2022-07-28T12:02:09.685Z,38.70
2022-07-28T12:04:38.195Z,38.70
2022-07-28T12:07:07.174Z,38.70
2022-07-28T12:09:42.661Z,38.60
2022-07-28T12:12:12.230Z,38.40
2022-07-28T12:14:41.064Z,38.40
2022-07-28T12:17:09.692Z,38.50
2022-07-28T12:19:37.847Z,38.60
2022-07-28T12:22:15.523Z,38.80
2022-07-28T12:24:44.811Z,38.70
2022-07-28T12:27:16.774Z,38.80
2022-07-28T12:29:49.419Z,38.90
2022-07-28T12:32:18.692Z,38.90
2022-07-28T12:34:46.763Z,38.90
2022-07-28T12:37:15.026Z,38.70
2022-07-28T12:39:44.345Z,38.60
2022-07-28T12:42:13.031Z,38.40
2022-07-28T12:44:43.104Z,38.40
2022-07-28T12:47:12.246Z,38.40
2022-07-28T12:49:41.449Z,38.40
2022-07-28T12:52:15.863Z,38.60
2022-07-28T12:54:50.447Z,38.70
2022-07-28T12:57:40.399Z,39.10
2022-07-28T13:10:56.640Z,38.90
2022-07-28T13:13:25.669Z,38.90
2022-07-28T13:16:12.476Z,38.80
2022-07-28T13:18:40.951Z,38.80
2022-07-28T13:21:09.123Z,38.70
2022-07-28T13:23:37.127Z,38.60
2022-07-28T13:26:07.076Z,38.40
2022-07-28T13:28:35.160Z,38.20
2022-07-28T13:31:03.188Z,37.70
2022-07-28T13:33:31.208Z,37.40
2022-07-28T13:36:00.680Z,36.90
2022-07-28T13:38:28.755Z,36.20
2022-07-28T13:40:57.800Z,35.80
2022-07-28T13:43:36.409Z,35.40
2022-07-28T13:46:05.447Z,35.20
2022-07-28T13:48:36.051Z,34.80
2022-07-28T13:51:04.255Z,34.50
2022-07-28T13:53:33.851Z,34.20
2022-07-28T13:56:02.081Z,34.00
2022-07-28T13:58:31.638Z,33.70
2022-07-28T14:01:00.552Z,33.50
2022-07-28T14:03:29.224Z,33.50
2022-07-28T14:06:17.200Z,33.30
2022-07-28T14:08:45.275Z,33.30
2022-07-28T14:11:16.420Z,33.30
2022-07-28T14:13:46.359Z,33.20
2022-07-28T14:16:15.999Z,33.20
2022-07-28T14:18:44.075Z,33.20
2022-07-28T14:21:12.127Z,33.10
2022-07-28T14:23:40.504Z,33.00
2022-07-28T14:26:34.355Z,32.90
2022-07-28T14:28:58.287Z,32.80
2022-07-28T14:31:26.335Z,32.70
2022-07-28T14:33:59.154Z,32.40
2022-07-28T14:36:27.214Z,32.40
2022-07-28T14:38:55.292Z,32.40
2022-07-28T14:41:23.432Z,32.50
2022-07-28T14:43:51.594Z,32.40
2022-07-28T14:46:22.159Z,32.50
2022-07-28T14:48:58.090Z,32.40
2022-07-28T14:51:26.170Z,32.40
2022-07-28T14:53:57.089Z,32.50
2022-07-28T14:56:25.163Z,32.70
2022-07-28T14:58:53.158Z,32.40
2022-07-28T15:01:22.626Z,32.40
2022-07-28T15:03:50.710Z,32.40
2022-07-28T15:06:18.757Z,32.40
2022-07-28T15:08:46.749Z,32.30
2022-07-28T15:11:14.787Z,32.30
2022-07-28T15:13:42.811Z,32.30
2022-07-28T15:16:10.899Z,32.20
2022-07-28T15:18:40.334Z,32.20
2022-07-28T15:21:12.726Z,32.20
2022-07-28T15:23:41.329Z,32.20
2022-07-28T15:26:09.793Z,32.20
2022-07-28T15:28:37.962Z,32.10
2022-07-28T15:31:07.796Z,32.10
2022-07-28T15:33:41.126Z,32.20
2022-07-28T15:36:17.442Z,32.20
2022-07-28T15:38:47.404Z,32.30
2022-07-28T15:41:17.187Z,32.30
2022-07-28T15:43:45.382Z,32.20
2022-07-28T15:46:14.332Z,32.20
2022-07-28T15:48:43.049Z,32.20
2022-07-28T15:51:12.627Z,32.20
2022-07-28T15:53:42.277Z,32.20
2022-07-28T15:56:10.311Z,32.10
2022-07-28T15:58:38.476Z,32.10
2022-07-28T16:01:07.421Z,32.10
2022-07-28T16:03:35.482Z,32.10
2022-07-28T16:06:03.490Z,32.00
2022-07-28T16:08:31.551Z,32.00
2022-07-28T16:11:00.942Z,31.90
2022-07-28T16:13:35.796Z,31.90
2022-07-28T16:16:08.773Z,31.90
2022-07-28T16:18:37.650Z,31.80
2022-07-28T16:21:05.926Z,31.90
2022-07-28T16:23:34.044Z,32.00
2022-07-28T16:26:05.256Z,32.10
2022-07-28T16:28:33.283Z,32.20
2022-07-28T16:31:01.402Z,32.30
2022-07-28T16:33:33.101Z,32.30
2022-07-28T16:36:01.786Z,32.30
2022-07-28T16:38:29.833Z,32.10
2022-07-28T16:40:58.188Z,31.90
2022-07-28T16:43:27.633Z,31.70
2022-07-28T16:45:55.671Z,31.50
2022-07-28T16:48:23.762Z,31.40
2022-07-28T16:50:52.096Z,31.20
2022-07-28T16:53:20.098Z,31.10
2022-07-28T16:55:48.280Z,31.00
2022-07-28T16:58:18.242Z,30.80
2022-07-28T17:00:47.617Z,30.70
2022-07-28T17:03:16.976Z,30.60
2022-07-28T17:05:45.118Z,30.60
2022-07-28T17:08:13.269Z,30.40
2022-07-28T17:10:41.362Z,30.30
2022-07-28T17:13:12.044Z,30.20
2022-07-28T17:15:41.407Z,30.20
2022-07-28T17:18:12.246Z,30.10
2022-07-28T17:20:41.338Z,30.10
2022-07-28T17:23:09.476Z,30.00
2022-07-28T17:28:26.441Z,29.80
2022-07-28T17:30:55.990Z,29.70
2022-07-28T17:33:26.815Z,29.60
2022-07-28T17:35:56.580Z,29.40
2022-07-28T17:38:31.021Z,29.40
2022-07-28T17:41:04.052Z,29.30
2022-07-28T17:43:32.943Z,29.20
2022-07-28T17:46:01.330Z,29.10
2022-07-28T17:48:32.504Z,29.00
2022-07-28T17:51:00.593Z,28.90
2022-07-28T17:53:28.771Z,28.90
2022-07-28T17:56:01.218Z,28.80
2022-07-28T17:58:32.225Z,28.70
2022-07-28T18:01:10.318Z,28.60
2022-07-28T18:03:56.395Z,28.50
2022-07-28T18:06:28.492Z,28.40
2022-07-28T18:08:56.559Z,28.40
2022-07-28T18:11:25.299Z,28.20
2022-07-28T18:14:04.850Z,27.90
2022-07-28T18:16:34.406Z,27.80
2022-07-28T18:19:04.394Z,27.60
2022-07-28T18:21:32.509Z,27.50
2022-07-28T18:24:03.071Z,27.50
2022-07-28T18:26:31.128Z,27.40
2022-07-28T18:28:59.122Z,27.20
2022-07-28T18:31:28.134Z,27.20
2022-07-28T18:33:56.262Z,27.10
2022-07-28T18:36:25.725Z,27.10
2022-07-28T18:38:53.783Z,27.00
2022-07-28T18:41:22.031Z,26.80
2022-07-28T18:43:50.127Z,26.20
2022-07-28T18:46:18.191Z,25.70
2022-07-28T18:48:48.067Z,25.20
2022-07-28T18:51:17.693Z,24.60
2022-07-28T18:53:47.138Z,23.90
2022-07-28T18:56:15.174Z,23.10
2022-07-28T18:58:43.458Z,22.70
2022-07-28T19:01:13.263Z,22.30
2022-07-28T19:03:41.502Z,22.00
2022-07-28T19:06:09.487Z,21.80
2022-07-28T19:08:37.476Z,21.70
2022-07-28T19:11:06.954Z,21.50
2022-07-28T19:13:34.914Z,21.20
2022-07-28T19:16:03.132Z,20.90
2022-07-28T19:18:31.143Z,20.70
2022-07-28T19:20:59.146Z,20.30
2022-07-28T19:23:27.171Z,19.90
2022-07-28T19:25:55.423Z,19.50
2022-07-28T19:28:24.878Z,19.10
2022-07-28T19:30:53.041Z,18.90
2022-07-28T19:33:21.951Z,18.70
2022-07-28T19:35:52.464Z,18.60
2022-07-28T19:38:20.605Z,18.50
2022-07-28T19:40:48.647Z,18.40
2022-07-28T19:43:16.939Z,18.30
2022-07-28T19:45:46.361Z,18.30
2022-07-28T19:48:14.400Z,18.20
2022-07-28T19:50:49.958Z,18.10
2022-07-28T19:53:19.898Z,18.00
2022-07-28T19:55:53.166Z,18.00
2022-07-28T19:58:21.282Z,17.90
2022-07-28T20:00:50.922Z,17.80
2022-07-28T20:04:04.063Z,17.80
2022-07-28T20:06:10.148Z,17.70
2022-07-28T20:08:38.318Z,17.70
2022-07-28T20:11:06.597Z,17.70
2022-07-28T20:13:34.650Z,17.80
2022-07-28T20:16:04.796Z,17.90
2022-07-28T20:18:32.812Z,18.00
2022-07-28T20:21:00.946Z,18.20
2022-07-28T20:23:28.967Z,18.20
2022-07-28T20:25:57.755Z,18.30
2022-07-28T20:28:25.819Z,18.30
2022-07-28T20:30:55.169Z,18.30
2022-07-28T20:33:24.639Z,18.30
2022-07-28T20:35:53.316Z,18.30
2022-07-28T20:38:23.411Z,18.30
2022-07-28T20:40:52.788Z,18.40
2022-07-28T20:43:20.783Z,18.40
2022-07-28T20:45:48.971Z,18.50
2022-07-28T20:48:17.009Z,18.50
2022-07-28T20:50:47.362Z,18.60
2022-07-28T20:53:15.479Z,18.70
2022-07-28T20:55:43.573Z,18.80
2022-07-28T20:58:13.013Z,18.90
2022-07-28T21:00:42.475Z,19.00
2022-07-28T21:03:10.471Z,19.00
2022-07-28T21:05:38.519Z,19.10
2022-07-28T21:08:09.213Z,19.10
2022-07-28T21:10:37.671Z,19.10
2022-07-28T21:13:05.903Z,19.20
2022-07-28T21:15:33.914Z,19.20
2022-07-28T21:18:01.926Z,19.20
2022-07-28T21:20:30.037Z,19.10
2022-07-28T21:22:58.721Z,19.10
2022-07-28T21:25:28.074Z,19.10
2022-07-28T21:28:09.930Z,19.10
2022-07-28T21:30:38.155Z,19.20
2022-07-28T21:33:06.169Z,19.30
2022-07-28T21:35:34.342Z,19.40
2022-07-28T21:38:02.300Z,19.40
2022-07-28T21:40:31.968Z,19.50
2022-07-28T21:42:59.969Z,19.50
2022-07-28T21:45:27.949Z,19.50
2022-07-28T21:47:55.927Z,19.60
2022-07-28T21:50:23.947Z,19.60
2022-07-28T21:52:51.973Z,19.60
2022-07-28T21:55:19.961Z,19.50
2022-07-28T21:57:49.579Z,19.60
2022-07-28T22:00:21.735Z,19.60
2022-07-28T22:02:49.707Z,19.60
2022-07-28T22:05:17.724Z,19.60
2022-07-28T22:07:45.787Z,19.70
2022-07-28T22:10:13.788Z,19.60
2022-07-28T22:12:42.738Z,19.60
2022-07-28T22:15:12.612Z,19.70
2022-07-28T22:17:40.586Z,19.70
2022-07-28T22:20:09.416Z,19.70
2022-07-28T22:22:37.398Z,19.70
2022-07-28T22:25:05.908Z,19.80
2022-07-28T22:27:33.888Z,19.60
2022-07-28T22:30:02.941Z,19.50
2022-07-28T22:32:32.366Z,19.50
2022-07-28T22:35:00.351Z,19.40
2022-07-28T22:37:28.371Z,19.30
2022-07-28T22:39:56.349Z,19.30
2022-07-28T22:42:24.345Z,19.20
2022-07-28T22:44:52.297Z,19.10
2022-07-28T22:47:20.427Z,19.10
2022-07-28T22:49:53.134Z,18.90
2022-07-28T22:52:24.942Z,18.80
2022-07-28T22:54:52.981Z,18.70
2022-07-28T22:57:21.592Z,18.70
2022-07-28T22:59:51.312Z,18.60
2022-07-28T23:02:19.414Z,18.60
2022-07-28T23:04:51.574Z,18.50
2022-07-28T23:07:35.301Z,18.40
2022-07-28T23:10:10.519Z,18.40
2022-07-28T23:12:38.524Z,18.40
2022-07-28T23:15:07.361Z,18.50
2022-07-28T23:17:35.373Z,18.30
2022-07-28T23:20:03.421Z,18.30
2022-07-28T23:22:32.778Z,18.30
2022-07-28T23:25:01.034Z,18.20
2022-07-28T23:27:29.018Z,18.20
2022-07-28T23:29:57.034Z,18.20
2022-07-28T23:32:25.027Z,18.20
2022-07-28T23:34:53.034Z,18.20
2022-07-28T23:37:21.032Z,18.20
2022-07-28T23:39:50.498Z,18.20
2022-07-28T23:42:18.481Z,18.20
2022-07-28T23:44:46.442Z,18.20
2022-07-28T23:47:14.541Z,18.10
2022-07-28T23:49:42.619Z,18.00
2022-07-28T23:52:10.654Z,18.00
2022-07-28T23:54:39.425Z,18.00
2022-07-28T23:57:08.826Z,17.90
2022-07-28T23:59:36.832Z,17.90
